Latest Weather Observations for Cloncurry

IDQ60801

Issued at 10:02 am EST Thursday 2 April 2015 (issued every 30 minutes, with the page automatically refreshed every 10 minutes)

About weather observations | Map of weather stations | Latest weather observations for QLD | Other Formats
Station Details ID: 029141 Name: CLONCURRY AIRPORT Lat: -20.67 Lon: 140.50 Height: 186.0 m
Data from the previous 72 hours. | See also: Recent months at Cloncurry
Date/Time
EST
Temp
°C
App
Temp
°C
Dew
Point
Rel
Hum
%
Delta-T
°C
Wind Press
QNH
hPa
Press
MSL
hPa
Rain
since 9 am
mm
Dir
 
Spd
km/h
Gust
km/h
Spd
kts
Gust
kts
02/10:00am 32.2 29.3 12.9 31 11.6 E 20 28 11 15 1013.8 1012.7 0.0
02/09:30am 31.2 28.2 12.5 31 11.1 E 20 30 11 16 1013.8 1012.7 0.0
02/09:00am 30.3 27.2 12.2 33 10.7 ESE 20 28 11 15 1013.8 1012.7 0.0
02/08:30am 29.0 25.3 11.6 34 10.1 ESE 22 28 12 15 1013.8 1012.7 0.0
02/08:00am 28.1 25.0 11.6 36 9.6 ESE 19 26 10 14 1013.6 1012.5 0.0
02/07:30am 27.2 24.6 10.8 36 9.3 ESE 15 20 8 11 1013.2 1012.2 0.0
02/07:00am 26.5 23.6 9.8 35 9.3 SE 15 20 8 11 1013.0 1011.9 0.0
02/06:30am 26.6 23.7 9.5 34 9.5 SE 15 20 8 11 1012.7 1011.6 0.0
02/06:00am 26.9 23.5 9.3 33 9.8 SE 17 22 9 12 1012.5 1011.4 0.0
02/05:30am 27.2 23.4 9.1 32 10.0 ESE 19 26 10 14 1012.2 1011.1 0.0
02/05:00am 27.3 23.4 8.7 31 10.2 ESE 19 22 10 12 1011.7 1010.6 0.0
02/04:30am 27.8 23.4 9.1 31 10.4 SE 22 28 12 15 1011.4 1010.3 0.0
02/04:00am 28.1 24.1 8.9 30 10.7 SE 20 28 11 15 1011.4 1010.3 0.0
02/03:30am 28.6 25.1 8.8 29 11.0 SE 17 20 9 11 1011.3 1010.2 0.0
02/03:00am 28.8 24.9 8.5 28 11.2 ESE 19 24 10 13 1011.2 1010.1 0.0
02/02:30am 29.2 25.1 8.8 28 11.4 ESE 20 24 11 13 1011.1 1010.0 0.0
02/02:00am 29.8 25.9 9.3 28 11.5 ESE 20 28 11 15 1011.2 1010.1 0.0
02/01:30am 30.1 26.8 9.6 28 11.6 ESE 17 24 9 13 1011.5 1010.4 0.0
02/01:00am 30.2 26.6 9.7 28 11.6 SE 19 22 10 12 1011.4 1010.3 0.0
02/12:30am 30.6 27.3 9.5 27 12.0 SE 17 20 9 11 1011.6 1010.5 0.0
02/12:00am 31.0 27.4 9.8 27 12.1 SE 19 26 10 14 1011.7 1010.6 0.0
 
Date/Time
EST
Temp
°C
App
Temp
°C
Dew
Point
Rel
Hum
%
Delta-T
°C
Wind Press
QNH
hPa
Press
MSL
hPa
Rain
since 9 am
mm
Dir
 
Spd
km/h
Gust
km/h
Spd
kts
Gust
kts
01/11:30pm 31.5 28.2 9.7 26 12.4 SE 17 24 9 13 1011.8 1010.7 0.0
01/11:00pm 31.5 28.2 9.7 26 12.5 SE 17 24 9 13 1011.7 1010.6 0.0
01/10:30pm 32.2 28.0 9.7 25 12.9 SE 22 32 12 17 1011.6 1010.5 0.0
01/10:00pm 32.2 29.3 9.7 25 12.9 SE 15 20 8 11 1011.6 1010.5 0.0
01/09:30pm 32.2 29.7 9.7 25 12.9 SE 13 17 7 9 1011.5 1010.4 0.0
01/09:00pm 32.5 30.1 9.9 25 13.0 SE 13 17 7 9 1011.4 1010.3 0.0
01/08:30pm 33.1 30.8 10.4 25 13.2 SE 13 15 7 8 1011.0 1009.9 0.0
01/08:00pm 33.7 31.5 10.9 25 13.4 SE 13 17 7 9 1010.6 1009.5 0.0
01/07:30pm 34.4 31.9 10.9 24 13.8 SE 15 20 8 11 1010.3 1009.2 0.0
01/07:00pm 34.9 31.9 10.7 23 14.3 SE 17 22 9 12 1009.9 1008.8 0.0
01/06:30pm 35.7 32.7 10.7 22 14.8 ESE 17 22 9 12 1009.6 1008.5 0.0
01/06:00pm 36.2 32.8 11.1 22 15.0 ESE 20 32 11 17 1009.2 1008.1 0.0
01/05:30pm 36.7 35.8 10.8 21 15.4 W 6 9 3 5 1009.0 1007.9 0.0
01/05:00pm 36.8 35.4 10.9 21 15.4 WSW 9 17 5 9 1008.9 1007.8 0.0
01/04:30pm 36.9 35.3 11.7 22 15.2 W 11 17 6 9 1009.0 1007.9 0.0
01/04:00pm 36.6 35.7 12.7 23 14.6 N 9 13 5 7 1009.2 1008.1 0.0
01/03:30pm 35.3 33.6 12.3 25 13.9 SE 13 19 7 10 1009.5 1008.4 0.0
01/03:00pm 36.2 35.6 13.6 25 14.0 ESE 9 20 5 11 1009.7 1008.6 0.0
01/02:30pm 36.8 36.2 14.7 26 13.9 ENE 11 20 6 11 1010.0 1008.9 0.0
01/02:00pm 37.3 35.8 16.3 29 13.5 ESE 19 26 10 14 1010.5 1009.4 0.0
01/01:30pm 36.3 35.6 16.5 31 12.7 NNE 15 24 8 13 1011.1 1010.0 0.0
01/01:00pm 34.8 33.7 15.2 31 12.3 ENE 15 26 8 14 1011.7 1010.6 0.0
01/12:30pm 35.0 34.6 16.3 32 11.9 NNE 13 26 7 14 1012.2 1011.1 0.0
01/12:00pm 34.3 33.5 16.2 34 11.5 NNE 15 22 8 12 1013.1 1012.0 0.0
01/11:30am 33.9 32.8 17.2 37 10.8 ENE 19 26 10 14 1013.8 1012.7 0.0
01/11:00am 32.5 31.6 16.8 39 10.0 NE 17 26 9 14 1014.3 1013.2 0.0
01/10:30am 32.2 31.1 17.7 42 9.4 NE 20 30 11 16 1014.8 1013.7 0.0
01/10:00am 31.0 29.9 17.7 45 8.5 ENE 20 28 11 15 1015.0 1013.9 0.0
01/09:30am 29.9 29.4 17.7 48 7.8 ENE 17 28 9 15 1015.2 1013.9 0.0
01/09:00am 28.9 27.8 17.7 50 7.2 ENE 20 26 11 14 1015.1 1013.8 0.4
01/08:30am 27.9 27.2 17.4 52 6.7 E 17 26 9 14 1015.0 1013.7 0.4
01/08:00am 26.8 26.5 17.3 56 6.0 ESE 15 20 8 11 1014.7 1013.4 0.4
01/07:30am 25.4 25.5 16.5 58 5.5 ESE 11 15 6 8 1014.6 1013.3 0.4
01/07:00am 25.0 25.0 16.2 58 5.4 SE 11 13 6 7 1014.2 1012.9 0.4
01/06:30am 25.1 24.7 16.3 58 5.4 SE 13 17 7 9 1013.9 1012.6 0.4
01/06:00am 25.1 25.4 16.0 57 5.6 ESE 9 13 5 7 1013.8 1012.5 0.4
01/05:30am 25.4 24.9 16.0 56 5.8 SSE 13 17 7 9 1013.2 1012.0 0.4
01/05:00am 25.6 25.2 16.2 56 5.8 SE 13 17 7 9 1012.9 1011.7 0.4
01/04:30am 25.9 25.1 16.2 55 6.0 SE 15 19 8 10 1012.8 1011.6 0.4
01/04:00am 26.1 25.0 16.4 55 6.0 ESE 17 22 9 12 1012.8 1011.6 0.4
01/03:30am 26.4 25.0 16.6 55 6.1 SE 19 26 10 14 1012.8 1011.6 0.4
01/03:00am 26.7 26.2 16.9 55 6.1 SE 15 20 8 11 1013.2 1012.0 0.4
01/02:30am 26.9 25.7 17.1 55 6.2 SE 19 30 10 16 1013.4 1012.2 0.4
01/02:00am 27.4 25.6 17.8 55 6.1 ESE 24 33 13 18 1013.8 1012.5 0.4
01/01:30am 27.7 26.9 18.4 57 6.0 ESE 20 28 11 15 1014.1 1012.8 0.4
01/01:00am 27.9 27.3 18.9 58 5.8 SE 20 30 11 16 1014.3 1013.0 0.4
01/12:30am 27.8 27.2 19.8 61 5.2 SE 22 32 12 17 1014.4 1013.1 0.4
01/12:00am 27.1 26.9 19.4 62 5.0 SE 19 22 10 12 1014.5 1013.2 0.4
 
Date/Time
EST
Temp
°C
App
Temp
°C
Dew
Point
Rel
Hum
%
Delta-T
°C
Wind Press
QNH
hPa
Press
MSL
hPa
Rain
since 9 am
mm
Dir
 
Spd
km/h
Gust
km/h
Spd
kts
Gust
kts
31/11:30pm 26.1 25.1 18.8 64 4.7 SE 22 28 12 15 1014.5 1013.2 0.4
31/11:00pm 25.8 24.2 16.6 56 5.7 SSE 20 26 11 14 1014.7 1013.4 0.2
31/10:30pm 26.9 23.1 14.6 46 7.4 S 28 46 15 25 1015.6 1014.3 0.0
31/10:13pm 30.0 24.6 12.9 35 10.2 SSW 33 59 18 32 1014.8 1013.5 0.0
31/10:00pm 31.9 29.8 13.6 32 11.1 SE 17 44 9 24 1014.3 1013.0 0.0
31/09:30pm 32.3 31.3 13.5 32 11.4 E 11 15 6 8 1013.2 1012.0 0.0
31/09:00pm 32.5 31.4 13.2 31 11.7 ESE 11 13 6 7 1013.1 1011.9 0.0
31/08:30pm 32.7 30.5 13.4 31 11.7 ESE 17 20 9 11 1012.9 1011.7 0.0
31/08:00pm 32.6 30.2 13.8 32 11.5 E 19 22 10 12 1012.6 1011.3 0.0
31/07:30pm 31.8 27.6 13.5 32 11.1 ESE 28 35 15 19 1012.3 1011.0 0.0
31/07:00pm 32.4 26.9 12.6 30 11.9 SE 33 44 18 24 1012.0 1010.7 0.0
31/06:30pm 33.8 30.1 11.6 26 13.2 SSE 22 32 12 17 1011.5 1010.2 0.0
31/06:00pm 36.1 35.7 12.3 24 14.4 NNW 6 9 3 5 1011.0 1009.7 0.0
31/05:30pm 36.3 35.2 11.9 23 14.7 NW 9 13 5 7 1010.8 1009.5 0.0
31/05:00pm 37.5 37.2 12.8 22 15.2 ENE 6 11 3 6 1010.7 1009.4 0.0
31/04:30pm 37.1 35.4 12.5 23 15.0 N 13 17 7 9 1010.6 1009.3 0.0
31/04:00pm 37.3 36.3 13.3 23 14.8 E 11 20 6 11 1010.8 1009.5 0.0
31/03:30pm 37.0 35.7 13.7 25 14.4 ENE 13 19 7 10 1011.1 1009.8 0.0
31/03:00pm 37.7 37.0 14.3 25 14.7 ENE 11 19 6 10 1011.6 1010.3 0.0
31/02:30pm 37.0 36.7 14.3 26 14.2 NE 9 32 5 17 1012.2 1010.9 0.0
31/02:00pm 36.4 35.5 13.8 26 14.0 N 11 20 6 11 1012.6 1011.3 0.0
31/01:30pm 35.8 33.8 13.9 27 13.6 NNW 17 28 9 15 1013.1 1011.9 0.0
31/01:00pm 35.8 34.0 14.4 27 13.3 N 17 24 9 13 1013.8 1012.5 0.0
31/12:30pm 36.0 35.2 15.2 29 13.1 N 13 24 7 13 1014.4 1013.1 0.0
31/12:00pm 34.9 33.2 14.7 29 12.6 N 17 28 9 15 1015.1 1013.8 0.0
31/11:30am 34.0 32.2 14.5 31 12.1 NE 17 33 9 18 1015.7 1014.4 0.0
31/11:00am 34.0 32.5 15.4 32 11.7 NNE 17 24 9 13 1016.2 1014.9 0.0
31/10:30am 33.2 31.1 15.2 33 11.2 N 20 30 11 16 1016.5 1015.2 0.0
31/10:00am 32.7 29.8 15.2 34 10.9 N 24 32 13 17 1016.6 1015.3 0.0
31/09:30am 31.8 29.0 14.4 34 10.7 NNE 22 28 12 15 1016.9 1015.6 0.0
31/09:00am 31.9 29.5 14.5 34 10.7 NE 20 30 11 16 1016.8 1015.5 0.0
31/08:30am 30.7 27.8 13.9 36 10.2 NE 22 28 12 15 1016.6 1015.3 0.0
31/08:00am 30.5 28.1 13.7 35 10.2 NE 19 22 10 12 1016.2 1014.9 0.0
31/07:30am 30.5 28.0 14.2 37 9.9 ENE 20 26 11 14 1015.9 1014.6 0.0
31/07:00am 30.8 27.9 14.0 36 10.2 E 22 28 12 15 1015.5 1014.2 0.0
31/06:30am 31.0 28.7 14.2 36 10.3 ESE 19 26 10 14 1015.0 1013.7 0.0
31/06:00am 31.2 28.8 13.9 35 10.5 SE 19 32 10 17 1014.5 1013.2 0.0
31/05:30am 31.5 29.6 14.2 35 10.6 SE 17 24 9 13 1014.0 1012.7 0.0
31/05:00am 31.2 30.7 13.9 35 10.5 SSE 9 17 5 9 1013.6 1012.3 0.0
31/04:30am 31.1 30.2 13.8 34 10.5 SSE 11 15 6 8 1013.2 1012.0 0.0
31/04:00am 31.3 30.0 13.6 34 10.7 SE 13 17 7 9 1013.1 1011.9 0.0
31/03:30am 31.5 29.8 13.7 33 10.8 SE 15 20 8 11 1012.9 1011.7 0.0
31/03:00am 31.9 29.8 13.6 32 11.1 SE 17 24 9 13 1013.1 1011.9 0.0
31/02:30am 32.1 29.5 13.3 31 11.4 SSE 19 28 10 15 1013.6 1012.3 0.0
31/02:00am 32.8 30.1 13.4 30 11.8 SSE 20 26 11 14 1013.8 1012.5 0.0
31/01:30am 32.3 31.2 13.0 31 11.6 SSE 11 13 6 7 1013.9 1012.6 0.0
31/01:00am 32.0 31.2 12.8 31 11.5 SSE 9 13 5 7 1014.2 1012.9 0.0
31/12:30am 31.6 30.3 12.4 31 11.4 S 11 13 6 7 1014.4 1013.1 0.0
31/12:00am 31.8 31.0 11.6 29 11.9 SSE 7 9 4 5 1014.7 1013.4 0.0
 
Date/Time
EST
Temp
°C
App
Temp
°C
Dew
Point
Rel
Hum
%
Delta-T
°C
Wind Press
QNH
hPa
Press
MSL
hPa
Rain
since 9 am
mm
Dir
 
Spd
km/h
Gust
km/h
Spd
kts
Gust
kts
30/11:30pm 33.0 31.0 12.6 29 12.3 SE 15 20 8 11 1014.8 1013.5 0.0
30/11:00pm 33.0 31.2 12.1 28 12.5 SE 13 17 7 9 1015.0 1013.7 0.0
30/10:30pm 33.4 31.7 12.4 28 12.6 SE 13 17 7 9 1015.2 1013.9 0.0
30/10:00pm 32.0 30.9 10.7 27 12.4 SE 7 9 4 5 1015.2 1013.9 0.0
30/09:30pm 32.7 31.8 11.3 27 12.6 SE 7 9 4 5 1015.1 1013.8 0.0
30/09:00pm 32.9 32.1 10.9 26 12.9 SE 6 7 3 4 1015.0 1013.7 0.0
30/08:30pm 34.2 32.9 11.4 25 13.5 SE 9 11 5 6 1014.9 1013.6 0.0
30/08:00pm 34.3 33.0 11.4 25 13.6 ESE 9 9 5 5 1014.6 1013.3 0.0
30/07:30pm 34.8 33.5 11.2 24 14.0 ESE 9 13 5 7 1014.3 1013.0 0.0
30/07:00pm 35.6 32.8 11.3 23 14.5 ESE 17 20 9 11 1014.0 1012.7 0.0
30/06:30pm 36.0 32.9 11.6 23 14.6 ESE 19 24 10 13 1013.8 1012.5 0.0
30/06:00pm 36.6 33.5 12.1 23 14.8 E 20 28 11 15 1013.6 1012.3 0.0
30/05:30pm 36.9 34.2 11.7 22 15.2 SE 17 32 9 17 1013.4 1012.2 0.0
30/05:00pm 36.2 34.5 11.1 22 14.9 SE 11 20 6 11 1013.3 1012.1 0.0
30/04:30pm 37.3 35.8 12.0 22 15.3 SE 11 15 6 8 1013.3 1012.1 0.0
30/04:00pm 38.0 36.3 12.6 22 15.6 ESE 13 24 7 13 1013.3 1012.1 0.0
30/03:30pm 37.0 34.5 12.4 23 15.0 E 17 30 9 16 1013.4 1012.2 0.0
30/03:00pm 36.4 35.3 11.9 23 14.8 ENE 9 19 5 10 1013.6 1012.3 0.0
30/02:30pm 36.1 34.4 12.3 24 14.4 ENE 13 24 7 13 1013.9 1012.6 0.0
30/02:00pm 36.2 35.8 13.0 24 14.2 ENE 7 15 4 8 1014.4 1013.1 0.0
30/01:30pm 35.5 35.0 12.5 25 13.9 NNW 7 13 4 7 1014.9 1013.6 0.0
30/01:00pm 35.3 33.2 12.3 25 13.9 NNE 15 22 8 12 1015.3 1014.0 0.0
30/12:30pm 34.5 32.0 12.2 26 13.4 N 17 30 9 16 1016.0 1014.7 0.0
30/12:00pm 34.4 32.2 12.1 26 13.4 N 15 30 8 16 1016.5 1015.2 0.0
30/11:30am 33.9 31.4 12.3 27 13.0 NNE 17 28 9 15 1017.2 1015.9 0.0
30/11:00am 32.8 30.0 11.3 27 12.6 NNE 17 26 9 14 1017.8 1016.6 0.0
30/10:30am 32.8 30.5 11.9 28 12.4 N 15 26 8 14 1018.1 1016.9 0.0

Other Formats:

Comma delimited format used in spreadsheet applications
http://www.bom.gov.au/fwo/IDQ60801/IDQ60801.94335.axf

JavaScript Object Notation format (JSON) in row-major order
http://www.bom.gov.au/fwo/IDQ60801/IDQ60801.94335.json